PWSweather.com
Personal Weather Stations
Station Observations
NOCONAWX
Sherman Street, Nocona, TX 76255

Sherman StreetNocona, TX 76255

Lat: 33.7851771, Lon: -97.7248693

Elevation: 981

Station Type: Davis 6152

http://www.noconaweather.com

High Low Average
Temperature 41.6°F5.3°F 38.6°F3.7°F 39.5°F4.2°F
Dew Point 37.8°F3.2°F 31.7°F-0.2°F 35.9°F2.2°F
Winds 6.0 mph SSE9.7 mph SSE Calm Calm 2.0 mph 3.2 mph
Wind Gusts 11.0 mph17.7 mph 1.0 mph1.6 mph 5.1 mph8.2 mph
Humidity 96% 73% 87%
Pressure 30.30 in1026.10 in 30.11 in1019.60 in -
Precipitation 2.00 in50.80 in - -
Hour Temp Dew Point Humidity Winds Wind Gusts Pressure Precip Precip Rate Daily Precip Total
12:00 AM 38.6°F3.7°C 31.7°F-0.2°C 76% Calm Calm 4.0 mph6.4 kmh 30.30 in1026.1 mb 0.00 in0.0 mm 0.00 in/hr0.0 mm/hr 0.00 in0.0 mm
12:15 AM 39.3°F4.1°C 32.0°F0.0°C 75% 2.0 mph SSE3.2 kmh SSE 4.0 mph6.4 kmh 30.29 in1025.7 mb 0.00 in0.0 mm 0.00 in/hr0.0 mm/hr 0.00 in0.0 mm
12:30 AM 39.6°F4.2°C 32.0°F0.0°C 74% 1.0 mph S1.6 kmh S 3.0 mph4.8 kmh 30.30 in1026.1 mb 0.00 in0.0 mm 0.00 in/hr0.0 mm/hr 0.00 in0.0 mm
12:45 AM 39.6°F4.2°C 32.7°F0.4°C 76% 1.0 mph SW1.6 kmh SW 1.0 mph1.6 kmh 30.30 in1026.1 mb 0.00 in0.0 mm 0.00 in/hr0.0 mm/hr 0.00 in0.0 mm
01:00 AM 39.9°F4.4°C 32.9°F0.5°C 76% 1.0 mph SSE1.6 kmh SSE 3.0 mph4.8 kmh 30.30 in1026.1 mb 0.00 in0.0 mm 0.00 in/hr0.0 mm/hr 0.00 in0.0 mm
01:15 AM 40.1°F4.5°C 33.1°F0.6°C 76% Calm Calm 1.0 mph1.6 kmh 30.30 in1026.1 mb 0.00 in0.0 mm 0.00 in/hr0.0 mm/hr 0.00 in0.0 mm
01:30 AM 39.9°F4.4°C 33.3°F0.7°C 77% Calm Calm 1.0 mph1.6 kmh 30.30 in1026.1 mb 0.00 in0.0 mm 0.00 in/hr0.0 mm/hr 0.00 in0.0 mm
01:45 AM 39.7°F4.3°C 33.1°F0.6°C 77% Calm Calm 2.0 mph3.2 kmh 30.29 in1025.7 mb 0.00 in0.0 mm 0.00 in/hr0.0 mm/hr 0.00 in0.0 mm
02:00 AM 39.4°F4.1°C 33.1°F0.6°C 78% Calm Calm 2.0 mph3.2 kmh 30.30 in1026.1 mb 0.00 in0.0 mm 0.00 in/hr0.0 mm/hr 0.00 in0.0 mm
02:15 AM 39.8°F4.3°C 33.2°F0.7°C 77% 1.0 mph SSE1.6 kmh SSE 5.0 mph8.0 kmh 30.28 in1025.4 mb 0.00 in0.0 mm 0.00 in/hr0.0 mm/hr 0.00 in0.0 mm
02:30 AM 40.2°F4.6°C 33.6°F0.9°C 77% 1.0 mph SSW1.6 kmh SSW 2.0 mph3.2 kmh 30.29 in1025.7 mb 0.00 in0.0 mm 0.00 in/hr0.0 mm/hr 0.00 in0.0 mm
02:45 AM 40.5°F4.7°C 33.5°F0.8°C 76% 1.0 mph SSE1.6 kmh SSE 4.0 mph6.4 kmh 30.28 in1025.4 mb 0.00 in0.0 mm 0.00 in/hr0.0 mm/hr 0.00 in0.0 mm
03:00 AM 40.8°F4.9°C 33.5°F0.8°C 75% 2.0 mph SSE3.2 kmh SSE 5.0 mph8.0 kmh 30.27 in1025.1 mb 0.00 in0.0 mm 0.00 in/hr0.0 mm/hr 0.00 in0.0 mm
03:15 AM 41.0°F5.0°C 33.7°F0.9°C 75% 2.0 mph S3.2 kmh S 4.0 mph6.4 kmh 30.27 in1025.1 mb 0.00 in0.0 mm 0.00 in/hr0.0 mm/hr 0.00 in0.0 mm
03:30 AM 41.2°F5.1°C 33.5°F0.8°C 74% 1.0 mph S1.6 kmh S 6.0 mph9.7 kmh 30.28 in1025.4 mb 0.00 in0.0 mm 0.00 in/hr0.0 mm/hr 0.00 in0.0 mm
03:45 AM 41.4°F5.2°C 33.4°F0.8°C 73% 1.0 mph SSE1.6 kmh SSE 2.0 mph3.2 kmh 30.28 in1025.4 mb 0.00 in0.0 mm 0.00 in/hr0.0 mm/hr 0.00 in0.0 mm
04:00 AM 41.6°F5.3°C 33.6°F0.9°C 73% 1.0 mph S1.6 kmh S 5.0 mph8.0 kmh 30.27 in1025.1 mb 0.00 in0.0 mm 0.00 in/hr0.0 mm/hr 0.00 in0.0 mm
04:15 AM 41.5°F5.3°C 33.5°F0.8°C 73% 2.0 mph S3.2 kmh S 4.0 mph6.4 kmh 30.26 in1024.7 mb 0.00 in0.0 mm 0.00 in/hr0.0 mm/hr 0.00 in0.0 mm
04:30 AM 41.5°F5.3°C 33.5°F0.8°C 73% 2.0 mph SSE3.2 kmh SSE 4.0 mph6.4 kmh 30.25 in1024.4 mb 0.00 in0.0 mm 0.00 in/hr0.0 mm/hr 0.00 in0.0 mm
04:45 AM 41.2°F5.1°C 33.9°F1.1°C 75% 2.0 mph SSW3.2 kmh SSW 3.0 mph4.8 kmh 30.27 in1025.1 mb 0.00 in0.0 mm 0.00 in/hr0.0 mm/hr 0.00 in0.0 mm
05:00 AM 41.0°F5.0°C 34.0°F1.1°C 76% 1.0 mph SE1.6 kmh SE 2.0 mph3.2 kmh 30.27 in1025.1 mb 0.00 in0.0 mm 0.00 in/hr0.0 mm/hr 0.00 in0.0 mm
05:15 AM 40.6°F4.8°C 34.6°F1.4°C 79% 1.0 mph SSE1.6 kmh SSE 3.0 mph4.8 kmh 30.27 in1025.1 mb 0.00 in0.0 mm 0.00 in/hr0.0 mm/hr 0.00 in0.0 mm
05:30 AM 40.3°F4.6°C 34.6°F1.4°C 80% 1.0 mph SSE1.6 kmh SSE 3.0 mph4.8 kmh 30.27 in1025.1 mb 0.00 in0.0 mm 0.00 in/hr0.0 mm/hr 0.00 in0.0 mm
05:45 AM 40.5°F4.7°C 34.5°F1.4°C 79% 1.0 mph S1.6 kmh S 3.0 mph4.8 kmh 30.27 in1025.1 mb 0.00 in0.0 mm 0.00 in/hr0.0 mm/hr 0.00 in0.0 mm
06:00 AM 40.4°F4.7°C 34.7°F1.5°C 80% 2.0 mph SE3.2 kmh SE 2.0 mph3.2 kmh 30.25 in1024.4 mb 0.01 in0.3 mm 0.01 in/hr0.3 mm/hr 0.01 in0.3 mm
06:15 AM 40.4°F4.7°C 34.4°F1.3°C 79% 1.0 mph S1.6 kmh S 4.0 mph6.4 kmh 30.26 in1024.7 mb 0.01 in0.3 mm 0.00 in/hr0.0 mm/hr 0.01 in0.3 mm
06:30 AM 40.6°F4.8°C 34.3°F1.3°C 78% 2.0 mph SSE3.2 kmh SSE 5.0 mph8.0 kmh 30.27 in1025.1 mb 0.01 in0.3 mm 0.00 in/hr0.0 mm/hr 0.01 in0.3 mm
06:45 AM 40.6°F4.8°C 34.3°F1.3°C 78% 1.0 mph S1.6 kmh S 3.0 mph4.8 kmh 30.27 in1025.1 mb 0.01 in0.3 mm 0.00 in/hr0.0 mm/hr 0.01 in0.3 mm
07:00 AM 40.6°F4.8°C 34.3°F1.3°C 78% 1.0 mph SSE1.6 kmh SSE 6.0 mph9.7 kmh 30.26 in1024.7 mb 0.00 in0.0 mm 0.00 in/hr0.0 mm/hr 0.01 in0.3 mm
07:15 AM 40.6°F4.8°C 34.3°F1.3°C 78% 2.0 mph SSE3.2 kmh SSE 5.0 mph8.0 kmh 30.26 in1024.7 mb 0.00 in0.0 mm 0.00 in/hr0.0 mm/hr 0.01 in0.3 mm
07:30 AM 40.4°F4.7°C 34.7°F1.5°C 80% 3.0 mph S4.8 kmh S 7.0 mph11.3 kmh 30.26 in1024.7 mb 0.00 in0.0 mm 0.00 in/hr0.0 mm/hr 0.01 in0.3 mm
07:45 AM 40.4°F4.7°C 34.4°F1.3°C 79% 2.0 mph S3.2 kmh S 5.0 mph8.0 kmh 30.27 in1025.1 mb 0.00 in0.0 mm 0.00 in/hr0.0 mm/hr 0.01 in0.3 mm
08:00 AM 40.5°F4.7°C 34.8°F1.6°C 80% 1.0 mph S1.6 kmh S 4.0 mph6.4 kmh 30.27 in1025.1 mb 0.00 in0.0 mm 0.00 in/hr0.0 mm/hr 0.01 in0.3 mm
08:15 AM 40.5°F4.7°C 34.8°F1.6°C 80% 2.0 mph SE3.2 kmh SE 3.0 mph4.8 kmh 30.27 in1025.1 mb 0.00 in0.0 mm 0.00 in/hr0.0 mm/hr 0.01 in0.3 mm
08:30 AM 40.4°F4.7°C 34.7°F1.5°C 80% 2.0 mph S3.2 kmh S 5.0 mph8.0 kmh 30.28 in1025.4 mb 0.00 in0.0 mm 0.00 in/hr0.0 mm/hr 0.01 in0.3 mm
08:45 AM 40.4°F4.7°C 35.0°F1.7°C 81% 2.0 mph S3.2 kmh S 3.0 mph4.8 kmh 30.28 in1025.4 mb 0.00 in0.0 mm 0.00 in/hr0.0 mm/hr 0.01 in0.3 mm
09:00 AM 40.5°F4.7°C 35.1°F1.7°C 81% 2.0 mph SE3.2 kmh SE 6.0 mph9.7 kmh 30.27 in1025.1 mb 0.00 in0.0 mm 0.00 in/hr0.0 mm/hr 0.01 in0.3 mm
09:15 AM 40.5°F4.7°C 35.1°F1.7°C 81% 2.0 mph SE3.2 kmh SE 5.0 mph8.0 kmh 30.28 in1025.4 mb 0.00 in0.0 mm 0.00 in/hr0.0 mm/hr 0.01 in0.3 mm
09:30 AM 40.1°F4.5°C 35.7°F2.1°C 84% 2.0 mph SE3.2 kmh SE 6.0 mph9.7 kmh 30.26 in1024.7 mb 0.01 in0.3 mm 0.04 in/hr1.0 mm/hr 0.02 in0.5 mm
09:45 AM 39.6°F4.2°C 35.8°F2.1°C 86% 4.0 mph SSE6.4 kmh SSE 9.0 mph14.5 kmh 30.25 in1024.4 mb 0.03 in0.8 mm 0.08 in/hr2.0 mm/hr 0.04 in1.0 mm
10:00 AM 39.1°F3.9°C 35.8°F2.1°C 88% 3.0 mph SE4.8 kmh SE 6.0 mph9.7 kmh 30.25 in1024.4 mb 0.03 in0.8 mm 0.00 in/hr0.0 mm/hr 0.04 in1.0 mm
10:15 AM 39.3°F4.1°C 36.3°F2.4°C 89% Calm Calm 3.0 mph4.8 kmh 30.27 in1025.1 mb 0.04 in1.0 mm 0.04 in/hr1.0 mm/hr 0.05 in1.3 mm
10:30 AM 39.1°F3.9°C 36.1°F2.3°C 89% 2.0 mph S3.2 kmh S 3.0 mph4.8 kmh 30.27 in1025.1 mb 0.04 in1.0 mm 0.00 in/hr0.0 mm/hr 0.06 in1.5 mm
10:45 AM 39.0°F3.9°C 36.3°F2.4°C 90% 1.0 mph SE1.6 kmh SE 1.0 mph1.6 kmh 30.28 in1025.4 mb 0.02 in0.5 mm 0.00 in/hr0.0 mm/hr 0.06 in1.5 mm
11:00 AM 38.8°F3.8°C 36.4°F2.4°C 91% 2.0 mph S3.2 kmh S 3.0 mph4.8 kmh 30.27 in1025.1 mb 0.03 in0.8 mm 0.01 in/hr0.3 mm/hr 0.07 in1.8 mm
11:15 AM 38.6°F3.7°C 36.5°F2.5°C 92% 3.0 mph SSE4.8 kmh SSE 9.0 mph14.5 kmh 30.22 in1023.4 mb 0.06 in1.5 mm 0.12 in/hr3.0 mm/hr 0.11 in2.8 mm
11:30 AM 38.9°F3.8°C 36.8°F2.7°C 92% 5.0 mph SSE8.0 kmh SSE 7.0 mph11.3 kmh 30.23 in1023.7 mb 0.05 in1.3 mm 0.00 in/hr0.0 mm/hr 0.11 in2.8 mm
11:45 AM 39.0°F3.9°C 36.9°F2.7°C 92% 4.0 mph SSE6.4 kmh SSE 10.0 mph16.1 kmh 30.21 in1023.0 mb 0.06 in1.5 mm 0.04 in/hr1.0 mm/hr 0.12 in3.0 mm
12:00 PM 39.1°F3.9°C 37.0°F2.8°C 92% 6.0 mph SSE9.7 kmh SSE 11.0 mph17.7 kmh 30.19 in1022.4 mb 0.05 in1.3 mm 0.00 in/hr0.0 mm/hr 0.12 in3.0 mm
12:15 PM 39.2°F4.0°C 37.1°F2.8°C 92% 5.0 mph SSE8.0 kmh SSE 11.0 mph17.7 kmh 30.16 in1021.3 mb 0.01 in0.3 mm 0.00 in/hr0.0 mm/hr 0.12 in3.0 mm
12:30 PM 39.4°F4.1°C 37.3°F2.9°C 92% 5.0 mph SSE8.0 kmh SSE 10.0 mph16.1 kmh 30.14 in1020.7 mb 0.01 in0.3 mm 0.00 in/hr0.0 mm/hr 0.12 in3.0 mm
12:45 PM 39.6°F4.2°C 37.2°F2.9°C 91% 5.0 mph S8.0 kmh S 11.0 mph17.7 kmh 30.12 in1020.0 mb 0.00 in0.0 mm 0.00 in/hr0.0 mm/hr 0.12 in3.0 mm
01:00 PM 39.6°F4.2°C 37.2°F2.9°C 91% 4.0 mph SSE6.4 kmh SSE 11.0 mph17.7 kmh 30.11 in1019.6 mb 0.00 in0.0 mm 0.00 in/hr0.0 mm/hr 0.12 in3.0 mm
01:15 PM 39.7°F4.3°C 37.3°F2.9°C 91% 3.0 mph ESE4.8 kmh ESE 4.0 mph6.4 kmh 30.12 in1020.0 mb 0.00 in0.0 mm 0.00 in/hr0.0 mm/hr 0.12 in3.0 mm
01:30 PM 39.9°F4.4°C 37.5°F3.1°C 91% 1.0 mph SE1.6 kmh SE 3.0 mph4.8 kmh 30.11 in1019.6 mb 0.00 in0.0 mm 0.00 in/hr0.0 mm/hr 0.12 in3.0 mm
01:45 PM 39.9°F4.4°C 37.8°F3.2°C 92% 1.0 mph N1.6 kmh N 3.0 mph4.8 kmh 30.14 in1020.7 mb 0.01 in0.3 mm 0.04 in/hr1.0 mm/hr 0.13 in3.3 mm
02:00 PM 39.6°F4.2°C 37.5°F3.1°C 92% 1.0 mph ENE1.6 kmh ENE 2.0 mph3.2 kmh 30.13 in1020.3 mb 0.02 in0.5 mm 0.01 in/hr0.3 mm/hr 0.14 in3.6 mm
02:15 PM 39.3°F4.1°C 37.4°F3.0°C 93% 1.0 mph NE1.6 kmh NE 3.0 mph4.8 kmh 30.16 in1021.3 mb 0.06 in1.5 mm 0.16 in/hr4.1 mm/hr 0.18 in4.6 mm
02:30 PM 39.0°F3.9°C 37.1°F2.8°C 93% 1.0 mph E1.6 kmh E 4.0 mph6.4 kmh 30.14 in1020.7 mb 0.17 in4.3 mm 0.44 in/hr11.2 mm/hr 0.29 in7.4 mm
02:45 PM 38.8°F3.8°C 37.2°F2.9°C 94% 1.0 mph E1.6 kmh E 3.0 mph4.8 kmh 30.14 in1020.7 mb 0.20 in5.1 mm 0.12 in/hr3.0 mm/hr 0.33 in8.4 mm
03:00 PM 38.8°F3.8°C 37.2°F2.9°C 94% 2.0 mph E3.2 kmh E 5.0 mph8.0 kmh 30.14 in1020.7 mb 0.23 in5.8 mm 0.04 in/hr1.0 mm/hr 0.37 in9.4 mm
03:15 PM 38.8°F3.8°C 37.5°F3.1°C 95% 1.0 mph E1.6 kmh E 3.0 mph4.8 kmh 30.14 in1020.7 mb 0.21 in5.3 mm 0.00 in/hr0.0 mm/hr 0.39 in9.9 mm
03:30 PM 38.8°F3.8°C 37.5°F3.1°C 95% 2.0 mph E3.2 kmh E 6.0 mph9.7 kmh 30.14 in1020.7 mb 0.11 in2.8 mm 0.00 in/hr0.0 mm/hr 0.40 in10.2 mm
03:45 PM 38.7°F3.7°C 37.4°F3.0°C 95% 1.0 mph E1.6 kmh E 3.0 mph4.8 kmh 30.14 in1020.7 mb 0.07 in1.8 mm 0.00 in/hr0.0 mm/hr 0.40 in10.2 mm
04:00 PM 38.6°F3.7°C 37.3°F2.9°C 95% 1.0 mph ESE1.6 kmh ESE 4.0 mph6.4 kmh 30.14 in1020.7 mb 0.08 in2.0 mm 0.01 in/hr0.3 mm/hr 0.45 in11.4 mm
04:15 PM 38.6°F3.7°C 37.3°F2.9°C 95% 1.0 mph E1.6 kmh E 4.0 mph6.4 kmh 30.14 in1020.7 mb 0.09 in2.3 mm 0.04 in/hr1.0 mm/hr 0.48 in12.2 mm
04:30 PM 38.6°F3.7°C 37.3°F2.9°C 95% 2.0 mph SE3.2 kmh SE 4.0 mph6.4 kmh 30.14 in1020.7 mb 0.09 in2.3 mm 0.00 in/hr0.0 mm/hr 0.49 in12.4 mm
04:45 PM 38.6°F3.7°C 37.6°F3.1°C 96% 2.0 mph SE3.2 kmh SE 4.0 mph6.4 kmh 30.14 in1020.7 mb 0.09 in2.3 mm 0.00 in/hr0.0 mm/hr 0.49 in12.4 mm
05:00 PM 38.7°F3.7°C 37.7°F3.2°C 96% 2.0 mph ESE3.2 kmh ESE 6.0 mph9.7 kmh 30.14 in1020.7 mb 0.04 in1.0 mm 0.00 in/hr0.0 mm/hr 0.49 in12.4 mm
05:15 PM 38.7°F3.7°C 37.7°F3.2°C 96% 2.0 mph SE3.2 kmh SE 8.0 mph12.9 kmh 30.14 in1020.7 mb 0.01 in0.3 mm 0.00 in/hr0.0 mm/hr 0.49 in12.4 mm
05:30 PM 38.7°F3.7°C 37.7°F3.2°C 96% 3.0 mph SE4.8 kmh SE 6.0 mph9.7 kmh 30.14 in1020.7 mb 0.00 in0.0 mm 0.00 in/hr0.0 mm/hr 0.49 in12.4 mm
05:45 PM 38.7°F3.7°C 37.7°F3.2°C 96% 4.0 mph SE6.4 kmh SE 6.0 mph9.7 kmh 30.14 in1020.7 mb 0.01 in0.3 mm 0.04 in/hr1.0 mm/hr 0.50 in12.7 mm
06:00 PM 38.7°F3.7°C 37.7°F3.2°C 96% 3.0 mph SSE4.8 kmh SSE 11.0 mph17.7 kmh 30.14 in1020.7 mb 0.01 in0.3 mm 0.00 in/hr0.0 mm/hr 0.50 in12.7 mm
06:15 PM 38.7°F3.7°C 37.7°F3.2°C 96% 4.0 mph SSE6.4 kmh SSE 9.0 mph14.5 kmh 30.14 in1020.7 mb 0.01 in0.3 mm 0.00 in/hr0.0 mm/hr 0.50 in12.7 mm
06:30 PM 38.8°F3.8°C 37.8°F3.2°C 96% 4.0 mph SSE6.4 kmh SSE 10.0 mph16.1 kmh 30.14 in1020.7 mb 0.01 in0.3 mm 0.00 in/hr0.0 mm/hr 0.50 in12.7 mm
06:45 PM 38.8°F3.8°C 37.8°F3.2°C 96% 4.0 mph SSE6.4 kmh SSE 8.0 mph12.9 kmh 30.15 in1021.0 mb 0.00 in0.0 mm 0.00 in/hr0.0 mm/hr 0.50 in12.7 mm
07:00 PM 38.7°F3.7°C 37.7°F3.2°C 96% 3.0 mph SSE4.8 kmh SSE 8.0 mph12.9 kmh 30.16 in1021.3 mb 0.00 in0.0 mm 0.00 in/hr0.0 mm/hr 0.50 in12.7 mm
07:15 PM 38.7°F3.7°C 37.7°F3.2°C 96% 2.0 mph SSE3.2 kmh SSE 5.0 mph8.0 kmh 30.16 in1021.3 mb 0.00 in0.0 mm 0.00 in/hr0.0 mm/hr 0.50 in12.7 mm
07:30 PM 38.6°F3.7°C 37.6°F3.1°C 96% 4.0 mph SE6.4 kmh SE 7.0 mph11.3 kmh 30.16 in1021.3 mb 0.00 in0.0 mm 0.00 in/hr0.0 mm/hr 0.50 in12.7 mm
07:45 PM 38.6°F3.7°C 37.6°F3.1°C 96% 3.0 mph S4.8 kmh S 7.0 mph11.3 kmh 30.16 in1021.3 mb 0.00 in0.0 mm 0.00 in/hr0.0 mm/hr 0.50 in12.7 mm
08:00 PM 38.6°F3.7°C 37.6°F3.1°C 96% 2.0 mph SSE3.2 kmh SSE 7.0 mph11.3 kmh 30.17 in1021.7 mb 0.00 in0.0 mm 0.00 in/hr0.0 mm/hr 0.50 in12.7 mm
08:15 PM 38.6°F3.7°C 37.6°F3.1°C 96% 2.0 mph S3.2 kmh S 7.0 mph11.3 kmh 30.16 in1021.3 mb 0.00 in0.0 mm 0.00 in/hr0.0 mm/hr 0.50 in12.7 mm
08:30 PM 38.7°F3.7°C 37.7°F3.2°C 96% 3.0 mph S4.8 kmh S 5.0 mph8.0 kmh 30.17 in1021.7 mb 0.00 in0.0 mm 0.00 in/hr0.0 mm/hr 0.50 in12.7 mm
08:45 PM 38.7°F3.7°C 37.7°F3.2°C 96% 2.0 mph SSW3.2 kmh SSW 5.0 mph8.0 kmh 30.17 in1021.7 mb 0.00 in0.0 mm 0.00 in/hr0.0 mm/hr 0.50 in12.7 mm
09:00 PM 38.8°F3.8°C 37.8°F3.2°C 96% 2.0 mph SSW3.2 kmh SSW 5.0 mph8.0 kmh 30.17 in1021.7 mb 0.00 in0.0 mm 0.00 in/hr0.0 mm/hr 0.50 in12.7 mm
09:15 PM 38.8°F3.8°C 37.8°F3.2°C 96% 1.0 mph S1.6 kmh S 6.0 mph9.7 kmh 30.17 in1021.7 mb 0.00 in0.0 mm 0.00 in/hr0.0 mm/hr 0.50 in12.7 mm
09:30 PM 38.7°F3.7°C 37.7°F3.2°C 96% 2.0 mph S3.2 kmh S 6.0 mph9.7 kmh 30.16 in1021.3 mb 0.00 in0.0 mm 0.00 in/hr0.0 mm/hr 0.50 in12.7 mm
09:45 PM 38.7°F3.7°C 37.7°F3.2°C 96% 2.0 mph SW3.2 kmh SW 8.0 mph12.9 kmh 30.16 in1021.3 mb 0.00 in0.0 mm 0.00 in/hr0.0 mm/hr 0.50 in12.7 mm
10:00 PM 38.7°F3.7°C 37.7°F3.2°C 96% 2.0 mph S3.2 kmh S 6.0 mph9.7 kmh 30.16 in1021.3 mb 0.00 in0.0 mm 0.00 in/hr0.0 mm/hr 0.50 in12.7 mm
10:15 PM 38.7°F3.7°C 37.7°F3.2°C 96% 2.0 mph S3.2 kmh S 5.0 mph8.0 kmh 30.16 in1021.3 mb 0.00 in0.0 mm 0.00 in/hr0.0 mm/hr 0.50 in12.7 mm
10:30 PM 38.7°F3.7°C 37.7°F3.2°C 96% 2.0 mph SSW3.2 kmh SSW 5.0 mph8.0 kmh 30.16 in1021.3 mb 0.00 in0.0 mm 0.00 in/hr0.0 mm/hr 0.50 in12.7 mm
10:45 PM 38.7°F3.7°C 37.7°F3.2°C 96% 2.0 mph S3.2 kmh S 6.0 mph9.7 kmh 30.16 in1021.3 mb 0.00 in0.0 mm 0.00 in/hr0.0 mm/hr 0.50 in12.7 mm
11:00 PM 38.8°F3.8°C 37.8°F3.2°C 96% 2.0 mph SSW3.2 kmh SSW 8.0 mph12.9 kmh 30.16 in1021.3 mb 0.00 in0.0 mm 0.00 in/hr0.0 mm/hr 0.50 in12.7 mm
11:15 PM 38.8°F3.8°C 37.8°F3.2°C 96% 2.0 mph SSW3.2 kmh SSW 5.0 mph8.0 kmh 30.16 in1021.3 mb 0.00 in0.0 mm 0.00 in/hr0.0 mm/hr 0.50 in12.7 mm
11:30 PM 38.8°F3.8°C 37.8°F3.2°C 96% 2.0 mph SW3.2 kmh SW 6.0 mph9.7 kmh 30.15 in1021.0 mb 0.00 in0.0 mm 0.00 in/hr0.0 mm/hr 0.50 in12.7 mm
11:45 PM 38.8°F3.8°C 37.8°F3.2°C 96% 2.0 mph SW3.2 kmh SW 3.0 mph4.8 kmh 30.16 in1021.3 mb 0.00 in0.0 mm 0.00 in/hr0.0 mm/hr 0.50 in12.7 mm